sensor_id;sensor_type;location;lat;lon;timestamp;P1;durP1;ratioP1;P2;durP2;ratioP2
177;SDS011;77;48.792;9.032;2023-12-20T17:59:29;3.67;;;2.50;;
177;SDS011;77;48.792;9.032;2023-12-20T18:01:54;4.00;;;2.50;;
177;SDS011;77;48.792;9.032;2023-12-20T18:04:19;4.37;;;2.80;;
177;SDS011;77;48.792;9.032;2023-12-20T18:06:45;5.00;;;2.40;;
177;SDS011;77;48.792;9.032;2023-12-20T18:09:10;4.00;;;2.28;;
177;SDS011;77;48.792;9.032;2023-12-20T18:11:35;4.65;;;2.60;;
177;SDS011;77;48.792;9.032;2023-12-20T18:14:00;5.20;;;2.90;;
177;SDS011;77;48.792;9.032;2023-12-20T18:16:26;4.10;;;2.40;;
177;SDS011;77;48.792;9.032;2023-12-20T18:18:52;3.50;;;2.20;;
177;SDS011;77;48.792;9.032;2023-12-20T18:21:17;2.87;;;2.20;;
177;SDS011;77;48.792;9.032;2023-12-20T18:23:42;3.60;;;2.20;;
177;SDS011;77;48.792;9.032;2023-12-20T18:26:07;4.67;;;2.43;;
177;SDS011;77;48.792;9.032;2023-12-20T18:28:32;3.42;;;2.22;;
177;SDS011;77;48.792;9.032;2023-12-20T18:30:57;4.10;;;2.50;;
177;SDS011;77;48.792;9.032;2023-12-20T18:33:24;3.90;;;2.40;;
177;SDS011;77;48.792;9.032;2023-12-20T18:35:49;4.50;;;2.60;;
177;SDS011;77;48.792;9.032;2023-12-20T18:38:14;3.47;;;2.30;;
177;SDS011;77;48.792;9.032;2023-12-20T18:40:40;4.40;;;2.37;;
177;SDS011;77;48.792;9.032;2023-12-20T18:43:05;4.17;;;2.30;;
177;SDS011;77;48.792;9.032;2023-12-20T18:45:30;5.73;;;2.50;;
177;SDS011;77;48.792;9.032;2023-12-20T18:47:55;4.43;;;2.40;;
177;SDS011;77;48.792;9.032;2023-12-20T18:50:22;4.73;;;2.43;;
177;SDS011;77;48.792;9.032;2023-12-20T18:52:47;5.40;;;2.80;;
177;SDS011;77;48.792;9.032;2023-12-20T18:55:12;3.90;;;2.70;;
177;SDS011;77;48.792;9.032;2023-12-20T18:57:37;5.33;;;3.53;;
177;SDS011;77;48.792;9.032;2023-12-20T19:00:03;4.20;;;3.03;;
177;SDS011;77;48.792;9.032;2023-12-20T19:02:28;5.93;;;2.60;;
177;SDS011;77;48.792;9.032;2023-12-20T19:04:53;7.57;;;2.57;;
177;SDS011;77;48.792;9.032;2023-12-20T19:07:20;5.90;;;2.90;;
177;SDS011;77;48.792;9.032;2023-12-20T19:09:45;5.37;;;2.70;;
177;SDS011;77;48.792;9.032;2023-12-20T19:12:10;4.28;;;2.50;;
177;SDS011;77;48.792;9.032;2023-12-20T19:14:35;4.23;;;2.80;;
177;SDS011;77;48.792;9.032;2023-12-20T19:17:01;6.73;;;2.90;;
177;SDS011;77;48.792;9.032;2023-12-20T19:19:26;4.87;;;2.73;;
177;SDS011;77;48.792;9.032;2023-12-20T19:21:51;5.90;;;3.13;;
177;SDS011;77;48.792;9.032;2023-12-20T19:24:17;4.83;;;3.03;;
177;SDS011;77;48.792;9.032;2023-12-20T19:26:43;4.53;;;2.67;;
177;SDS011;77;48.792;9.032;2023-12-20T19:29:08;4.10;;;2.70;;
177;SDS011;77;48.792;9.032;2023-12-20T19:31:33;5.05;;;2.78;;
177;SDS011;77;48.792;9.032;2023-12-20T19:33:58;8.40;;;2.90;;
177;SDS011;77;48.792;9.032;2023-12-20T19:36:23;5.97;;;2.90;;
177;SDS011;77;48.792;9.032;2023-12-20T19:38:48;4.87;;;2.73;;
177;SDS011;77;48.792;9.032;2023-12-20T19:41:15;4.40;;;2.97;;
177;SDS011;77;48.792;9.032;2023-12-20T19:43:40;4.30;;;2.83;;
177;SDS011;77;48.792;9.032;2023-12-20T19:46:05;5.93;;;3.07;;
177;SDS011;77;48.792;9.032;2023-12-20T19:48:30;5.40;;;3.00;;
177;SDS011;77;48.792;9.032;2023-12-20T19:50:56;4.83;;;3.10;;
177;SDS011;77;48.792;9.032;2023-12-20T19:53:21;4.87;;;3.10;;
177;SDS011;77;48.792;9.032;2023-12-20T19:55:46;5.30;;;2.90;;
177;SDS011;77;48.792;9.032;2023-12-20T19:58:12;4.57;;;3.00;;
177;SDS011;77;48.792;9.032;2023-12-20T20:00:37;7.63;;;3.10;;
177;SDS011;77;48.792;9.032;2023-12-20T20:03:03;4.50;;;2.87;;
177;SDS011;77;48.792;9.032;2023-12-20T20:05:28;6.83;;;3.20;;
177;SDS011;77;48.792;9.032;2023-12-20T20:07:53;5.53;;;2.83;;
177;SDS011;77;48.792;9.032;2023-12-20T20:10:18;4.90;;;2.80;;
177;SDS011;77;48.792;9.032;2023-12-20T20:12:44;4.00;;;2.70;;
177;SDS011;77;48.792;9.032;2023-12-20T20:15:10;5.17;;;2.90;;
177;SDS011;77;48.792;9.032;2023-12-20T20:17:35;5.10;;;2.97;;
177;SDS011;77;48.792;9.032;2023-12-20T20:20:01;5.50;;;2.80;;
177;SDS011;77;48.792;9.032;2023-12-20T20:22:26;4.50;;;2.90;;
177;SDS011;77;48.792;9.032;2023-12-20T20:24:51;8.27;;;3.20;;
177;SDS011;77;48.792;9.032;2023-12-20T20:27:16;8.73;;;2.97;;
177;SDS011;77;48.792;9.032;2023-12-20T20:29:41;5.40;;;2.90;;
177;SDS011;77;48.792;9.032;2023-12-20T20:32:08;5.20;;;2.87;;
177;SDS011;77;48.792;9.032;2023-12-20T20:34:33;6.10;;;3.10;;
177;SDS011;77;48.792;9.032;2023-12-20T20:36:58;4.80;;;2.70;;
177;SDS011;77;48.792;9.032;2023-12-20T20:39:23;6.40;;;2.97;;
177;SDS011;77;48.792;9.032;2023-12-20T20:41:48;6.60;;;2.60;;
177;SDS011;77;48.792;9.032;2023-12-20T20:44:14;5.13;;;2.80;;
177;SDS011;77;48.792;9.032;2023-12-20T20:46:39;6.80;;;2.97;;
177;SDS011;77;48.792;9.032;2023-12-20T20:49:05;5.97;;;2.80;;
177;SDS011;77;48.792;9.032;2023-12-20T20:51:31;6.17;;;2.83;;
177;SDS011;77;48.792;9.032;2023-12-20T20:53:56;4.50;;;2.90;;
177;SDS011;77;48.792;9.032;2023-12-20T20:56:21;4.17;;;2.83;;
177;SDS011;77;48.792;9.032;2023-12-20T20:58:46;4.93;;;2.90;;
177;SDS011;77;48.792;9.032;2023-12-20T21:01:11;5.33;;;2.60;;
177;SDS011;77;48.792;9.032;2023-12-20T21:03:37;4.90;;;3.03;;
177;SDS011;77;48.792;9.032;2023-12-20T21:06:03;4.77;;;3.00;;
177;SDS011;77;48.792;9.032;2023-12-20T21:08:29;3.97;;;2.70;;
177;SDS011;77;48.792;9.032;2023-12-20T21:10:54;6.03;;;2.70;;
177;SDS011;77;48.792;9.032;2023-12-20T21:13:19;6.90;;;2.97;;
177;SDS011;77;48.792;9.032;2023-12-20T21:15:44;4.63;;;2.97;;
177;SDS011;77;48.792;9.032;2023-12-20T21:18:09;4.77;;;2.90;;
177;SDS011;77;48.792;9.032;2023-12-20T21:20:34;6.33;;;2.90;;
177;SDS011;77;48.792;9.032;2023-12-20T21:23:01;4.60;;;2.80;;
177;SDS011;77;48.792;9.032;2023-12-20T21:25:26;5.23;;;2.80;;
177;SDS011;77;48.792;9.032;2023-12-20T21:27:51;4.63;;;2.90;;
177;SDS011;77;48.792;9.032;2023-12-20T21:30:16;6.17;;;3.00;;
177;SDS011;77;48.792;9.032;2023-12-20T21:32:41;6.07;;;3.20;;
177;SDS011;77;48.792;9.032;2023-12-20T21:35:07;4.30;;;2.80;;
177;SDS011;77;48.792;9.032;2023-12-20T21:37:32;9.10;;;3.20;;
177;SDS011;77;48.792;9.032;2023-12-20T21:39:59;6.03;;;3.20;;
177;SDS011;77;48.792;9.032;2023-12-20T21:42:24;6.37;;;3.10;;
177;SDS011;77;48.792;9.032;2023-12-20T21:44:49;5.43;;;3.33;;
177;SDS011;77;48.792;9.032;2023-12-20T21:47:14;6.03;;;2.90;;
177;SDS011;77;48.792;9.032;2023-12-20T21:49:39;4.30;;;2.80;;
177;SDS011;77;48.792;9.032;2023-12-20T21:52:05;5.93;;;3.20;;
177;SDS011;77;48.792;9.032;2023-12-20T21:54:30;4.73;;;2.93;;
177;SDS011;77;48.792;9.032;2023-12-20T21:56:56;4.23;;;2.80;;
177;SDS011;77;48.792;9.032;2023-12-20T21:59:21;5.07;;;3.07;;
177;SDS011;77;48.792;9.032;2023-12-20T22:01:47;5.20;;;2.90;;
177;SDS011;77;48.792;9.032;2023-12-20T22:04:12;5.33;;;3.00;;
177;SDS011;77;48.792;9.032;2023-12-20T22:06:37;5.17;;;3.07;;
177;SDS011;77;48.792;9.032;2023-12-20T22:09:02;5.70;;;3.00;;
177;SDS011;77;48.792;9.032;2023-12-20T22:11:27;5.70;;;2.90;;
177;SDS011;77;48.792;9.032;2023-12-20T22:13:54;4.57;;;2.90;;
177;SDS011;77;48.792;9.032;2023-12-20T22:16:19;4.07;;;2.80;;
177;SDS011;77;48.792;9.032;2023-12-20T22:18:44;4.57;;;2.90;;
177;SDS011;77;48.792;9.032;2023-12-20T22:21:09;5.07;;;2.90;;
177;SDS011;77;48.792;9.032;2023-12-20T22:23:35;5.40;;;2.60;;
177;SDS011;77;48.792;9.032;2023-12-20T22:26:00;5.17;;;2.70;;
177;SDS011;77;48.792;9.032;2023-12-20T22:28:25;4.57;;;2.90;;
177;SDS011;77;48.792;9.032;2023-12-20T22:30:51;5.40;;;2.93;;
177;SDS011;77;48.792;9.032;2023-12-20T22:33:17;4.27;;;2.73;;
